createdAt,value
2017-05-30T00:00:32.883Z,952.16
2017-05-30T00:01:32.879Z,952.2
2017-05-30T00:02:32.881Z,952.2
2017-05-30T00:03:32.880Z,952.18
2017-05-30T00:04:32.877Z,952.14
2017-05-30T00:05:32.874Z,952.18
2017-05-30T00:06:32.874Z,952.17
2017-05-30T00:07:32.895Z,952.19
2017-05-30T00:08:32.873Z,952.2
2017-05-30T00:09:32.870Z,952.16
2017-05-30T00:10:32.868Z,952.15
2017-05-30T00:11:32.867Z,952.21
2017-05-30T00:12:32.865Z,952.14
2017-05-30T00:13:32.864Z,952.2
2017-05-30T00:14:32.862Z,952.17
2017-05-30T00:15:32.859Z,952.19
2017-05-30T00:16:32.858Z,952.18
2017-05-30T00:17:32.858Z,952.22
2017-05-30T00:18:32.858Z,952.18
2017-05-30T00:19:32.866Z,952.22
2017-05-30T00:20:32.852Z,952.2
2017-05-30T00:21:32.852Z,952.2
2017-05-30T00:22:32.847Z,952.23
2017-05-30T00:23:32.848Z,952.2
2017-05-30T00:24:32.847Z,952.2
2017-05-30T00:25:32.845Z,952.2
2017-05-30T00:26:32.841Z,952.17
2017-05-30T00:27:32.841Z,952.18
2017-05-30T00:28:32.853Z,952.17
2017-05-30T00:29:32.859Z,952.17
2017-05-30T00:30:32.835Z,952.19
2017-05-30T00:31:32.836Z,952.21
2017-05-30T00:32:32.844Z,952.17
2017-05-30T00:33:32.829Z,952.17
2017-05-30T00:34:32.829Z,952.16
2017-05-30T00:35:32.829Z,952.16
2017-05-30T00:36:32.826Z,952.19
2017-05-30T00:37:32.824Z,952.17
2017-05-30T00:38:32.821Z,952.19
2017-05-30T00:39:32.822Z,952.18
2017-05-30T00:40:32.820Z,952.2
2017-05-30T00:41:32.817Z,952.17
2017-05-30T00:42:32.834Z,952.17
2017-05-30T00:43:32.814Z,952.16
2017-05-30T00:44:32.811Z,952.16
2017-05-30T00:45:32.831Z,952.16
2017-05-30T00:46:32.809Z,952.13
2017-05-30T00:47:32.807Z,952.13
2017-05-30T00:48:32.806Z,952.12
2017-05-30T00:49:32.803Z,952.09
2017-05-30T00:50:32.803Z,952.09
2017-05-30T00:51:32.800Z,952.09
2017-05-30T00:52:32.799Z,952.1
2017-05-30T00:53:32.795Z,952.1
2017-05-30T00:54:32.828Z,952.04
2017-05-30T00:55:32.792Z,952.04
2017-05-30T00:56:32.792Z,952.03
2017-05-30T00:57:32.790Z,952.02
2017-05-30T00:58:32.788Z,952.01
2017-05-30T00:59:32.784Z,952.05
2017-05-30T01:00:32.784Z,952.03
2017-05-30T01:01:32.781Z,952.07
2017-05-30T01:02:32.779Z,952.04
2017-05-30T01:03:32.777Z,952.05
2017-05-30T01:04:32.777Z,952.08
2017-05-30T01:05:32.775Z,952.02
2017-05-30T01:06:32.773Z,952.01
2017-05-30T01:07:32.771Z,952.03
2017-05-30T01:08:32.769Z,952.04
2017-05-30T01:09:32.769Z,952.02
2017-05-30T01:10:32.765Z,952
2017-05-30T01:11:32.763Z,952
2017-05-30T01:12:32.762Z,951.97
2017-05-30T01:13:32.761Z,951.98
2017-05-30T01:14:32.758Z,951.97
2017-05-30T01:15:32.756Z,951.97
2017-05-30T01:16:32.753Z,951.92
2017-05-30T01:17:32.751Z,951.93
2017-05-30T01:18:32.751Z,951.94
2017-05-30T01:19:32.756Z,951.93
2017-05-30T01:20:32.747Z,951.89
2017-05-30T01:21:32.743Z,951.87
2017-05-30T01:22:32.743Z,951.92
2017-05-30T01:23:32.748Z,951.9
2017-05-30T01:24:32.739Z,951.89
2017-05-30T01:25:32.743Z,951.91
2017-05-30T01:26:32.749Z,951.84
2017-05-30T01:27:32.734Z,951.88
2017-05-30T01:28:32.732Z,951.85
2017-05-30T01:29:32.730Z,951.83
2017-05-30T01:30:32.728Z,951.84
2017-05-30T01:31:32.725Z,951.81
2017-05-30T01:32:32.723Z,951.79
2017-05-30T01:33:32.721Z,951.78
2017-05-30T01:34:32.721Z,951.77
2017-05-30T01:35:32.717Z,951.75
2017-05-30T01:36:32.715Z,951.75
2017-05-30T01:37:32.715Z,951.69
2017-05-30T01:38:32.712Z,951.71
2017-05-30T01:39:32.710Z,951.69
2017-05-30T01:40:32.708Z,951.69
2017-05-30T01:41:32.706Z,951.71
2017-05-30T01:42:32.704Z,951.71
2017-05-30T01:43:32.701Z,951.68
2017-05-30T01:44:32.699Z,951.68
2017-05-30T01:45:32.699Z,951.68
2017-05-30T01:46:32.696Z,951.69
2017-05-30T01:47:32.694Z,951.69
2017-05-30T01:48:32.692Z,951.68
2017-05-30T01:49:32.690Z,951.67
2017-05-30T01:50:32.687Z,951.65
2017-05-30T01:51:32.708Z,951.66
2017-05-30T01:52:32.685Z,951.61
2017-05-30T01:53:32.683Z,951.57
2017-05-30T01:54:32.682Z,951.59
2017-05-30T01:55:32.679Z,951.62
2017-05-30T01:56:32.677Z,951.58
2017-05-30T01:57:32.674Z,951.56
2017-05-30T01:58:32.680Z,951.58
2017-05-30T01:59:32.672Z,951.58
2017-05-30T02:00:32.669Z,951.58
2017-05-30T02:01:32.668Z,951.58
2017-05-30T02:02:32.665Z,951.59
2017-05-30T02:03:32.665Z,951.58
2017-05-30T02:04:32.662Z,951.6
2017-05-30T02:05:32.658Z,951.58
2017-05-30T02:06:32.659Z,951.54
2017-05-30T02:07:32.656Z,951.53
2017-05-30T02:08:32.653Z,951.51
2017-05-30T02:09:32.651Z,951.52
2017-05-30T02:10:32.648Z,951.52
2017-05-30T02:11:32.649Z,951.53
2017-05-30T02:12:32.646Z,951.52
2017-05-30T02:13:32.643Z,951.52
2017-05-30T02:14:32.642Z,951.5
2017-05-30T02:15:32.653Z,951.51
2017-05-30T02:16:32.643Z,951.51
2017-05-30T02:17:32.638Z,951.49
2017-05-30T02:18:32.636Z,951.52
2017-05-30T02:19:32.633Z,951.48
2017-05-30T02:20:32.631Z,951.45
2017-05-30T02:21:32.630Z,951.46
2017-05-30T02:22:32.629Z,951.42
2017-05-30T02:23:32.627Z,951.47
2017-05-30T02:24:32.624Z,951.48
2017-05-30T02:25:32.623Z,951.49
2017-05-30T02:26:32.633Z,951.48
2017-05-30T02:27:32.670Z,951.48
2017-05-30T02:28:32.631Z,951.49
2017-05-30T02:29:32.617Z,951.49
2017-05-30T02:30:32.614Z,951.5
2017-05-30T02:31:32.613Z,951.51
2017-05-30T02:32:32.616Z,951.5
2017-05-30T02:33:32.608Z,951.51
2017-05-30T02:34:32.606Z,951.48
2017-05-30T02:35:32.606Z,951.46
2017-05-30T02:36:32.603Z,951.49
2017-05-30T02:37:32.602Z,951.49
2017-05-30T02:38:32.600Z,951.52
2017-05-30T02:39:32.600Z,951.52
2017-05-30T02:40:32.597Z,951.5
2017-05-30T02:41:32.594Z,951.48
2017-05-30T02:42:32.608Z,951.48
2017-05-30T02:43:32.593Z,951.47
2017-05-30T02:44:32.591Z,951.46
2017-05-30T02:45:32.588Z,951.45
2017-05-30T02:46:32.588Z,951.4
2017-05-30T02:47:32.585Z,951.42
2017-05-30T02:48:32.585Z,951.44
2017-05-30T02:49:32.581Z,951.4
2017-05-30T02:50:32.581Z,951.41
2017-05-30T02:51:32.593Z,951.39
2017-05-30T02:52:32.599Z,951.41
2017-05-30T02:53:32.576Z,951.39
2017-05-30T02:54:32.577Z,951.42
2017-05-30T02:55:32.573Z,951.37
2017-05-30T02:56:32.582Z,951.37
2017-05-30T02:57:32.569Z,951.35
2017-05-30T02:58:32.568Z,951.41
2017-05-30T02:59:32.567Z,951.4
2017-05-30T03:00:32.565Z,951.4
2017-05-30T03:01:32.564Z,951.38
2017-05-30T03:02:32.565Z,951.38
2017-05-30T03:03:32.560Z,951.4
2017-05-30T03:04:32.558Z,951.39
2017-05-30T03:05:32.557Z,951.42
2017-05-30T03:06:32.558Z,951.42
2017-05-30T03:07:32.554Z,951.42
2017-05-30T03:08:32.555Z,951.4
2017-05-30T03:09:32.551Z,951.42
2017-05-30T03:10:32.550Z,951.41
2017-05-30T03:11:32.548Z,951.4
2017-05-30T03:12:32.547Z,951.41
2017-05-30T03:13:32.546Z,951.43
2017-05-30T03:14:32.544Z,951.41
2017-05-30T03:15:32.542Z,951.42
2017-05-30T03:16:32.541Z,951.45
2017-05-30T03:17:32.541Z,951.44
2017-05-30T03:18:32.539Z,951.5
2017-05-30T03:19:32.536Z,951.49
2017-05-30T03:20:32.536Z,951.46
2017-05-30T03:21:32.534Z,951.52
2017-05-30T03:22:32.534Z,951.51
2017-05-30T03:23:32.532Z,951.5
2017-05-30T03:24:32.551Z,951.49
2017-05-30T03:25:32.529Z,951.51
2017-05-30T03:26:32.529Z,951.54
2017-05-30T03:27:32.527Z,951.55
2017-05-30T03:28:32.526Z,951.59
2017-05-30T03:29:32.523Z,951.63
2017-05-30T03:30:32.573Z,951.59
2017-05-30T03:31:32.527Z,951.61
2017-05-30T03:32:32.520Z,951.63
2017-05-30T03:33:32.541Z,951.64
2017-05-30T03:34:32.519Z,951.69
2017-05-30T03:35:32.518Z,951.68
2017-05-30T03:36:32.516Z,951.71
2017-05-30T03:37:32.515Z,951.74
2017-05-30T03:38:32.515Z,951.74
2017-05-30T03:39:32.514Z,951.71
2017-05-30T03:40:32.512Z,951.74
2017-05-30T03:41:32.510Z,951.73
2017-05-30T03:42:32.511Z,951.73
2017-05-30T03:43:32.509Z,951.74
2017-05-30T03:44:32.509Z,951.74
2017-05-30T03:45:32.508Z,951.75
2017-05-30T03:46:32.507Z,951.76
2017-05-30T03:47:32.505Z,951.74
2017-05-30T03:48:32.505Z,951.75
2017-05-30T03:49:32.505Z,951.76
2017-05-30T03:50:32.504Z,951.79
2017-05-30T03:51:32.503Z,951.8
2017-05-30T03:52:32.503Z,951.79
2017-05-30T03:53:32.502Z,951.8
2017-05-30T03:54:32.502Z,951.82
2017-05-30T03:55:32.500Z,951.79
2017-05-30T03:56:32.499Z,951.77
2017-05-30T03:57:32.499Z,951.77
2017-05-30T03:58:32.498Z,951.8
2017-05-30T03:59:32.505Z,951.8
2017-05-30T04:00:32.495Z,951.81
2017-05-30T04:01:32.495Z,951.77
2017-05-30T04:02:32.493Z,951.76
2017-05-30T04:03:32.495Z,951.78
2017-05-30T04:04:32.493Z,951.81
2017-05-30T04:05:32.492Z,951.8
2017-05-30T04:06:32.492Z,951.84
2017-05-30T04:07:32.491Z,951.84
2017-05-30T04:08:32.490Z,951.87
2017-05-30T04:09:32.488Z,951.83
2017-05-30T04:10:32.488Z,951.84
2017-05-30T04:11:32.489Z,951.88
2017-05-30T04:12:32.489Z,951.86
2017-05-30T04:13:32.488Z,951.83
2017-05-30T04:14:32.487Z,951.84
2017-05-30T04:15:32.485Z,951.82
2017-05-30T04:16:32.485Z,951.89
2017-05-30T04:17:32.484Z,951.84
2017-05-30T04:18:32.484Z,951.83
2017-05-30T04:19:32.483Z,951.86
2017-05-30T04:20:32.482Z,951.88
2017-05-30T04:21:32.482Z,951.88
2017-05-30T04:22:32.482Z,951.88
2017-05-30T04:23:32.482Z,951.89
2017-05-30T04:24:32.482Z,951.89
2017-05-30T04:25:32.481Z,951.93
2017-05-30T04:26:32.492Z,951.93
2017-05-30T04:27:32.483Z,951.92
2017-05-30T04:28:32.478Z,951.92
2017-05-30T04:29:32.480Z,951.95
2017-05-30T04:30:32.481Z,951.94
2017-05-30T04:31:32.483Z,951.93
2017-05-30T04:32:32.478Z,951.94
2017-05-30T04:33:32.478Z,951.98
2017-05-30T04:34:32.477Z,951.98
2017-05-30T04:35:32.477Z,951.99
2017-05-30T04:36:32.477Z,951.97
2017-05-30T04:37:32.478Z,951.98
2017-05-30T04:38:32.493Z,951.93
2017-05-30T04:39:32.498Z,951.94
2017-05-30T04:40:32.477Z,951.99
2017-05-30T04:41:32.513Z,951.95
2017-05-30T04:42:32.474Z,951.97
2017-05-30T04:43:32.474Z,951.95
2017-05-30T04:44:32.474Z,951.92
2017-05-30T04:45:32.474Z,951.89
2017-05-30T04:46:32.477Z,951.91
2017-05-30T04:47:32.496Z,951.92
2017-05-30T04:48:32.475Z,951.89
2017-05-30T04:49:32.474Z,951.88
2017-05-30T04:50:32.477Z,951.86
2017-05-30T04:51:32.476Z,951.85
2017-05-30T04:52:32.475Z,951.84
2017-05-30T04:53:32.475Z,951.8
2017-05-30T04:54:32.475Z,951.83
2017-05-30T04:55:32.475Z,951.82
2017-05-30T04:56:32.475Z,951.81
2017-05-30T04:57:32.476Z,951.83
2017-05-30T04:58:32.476Z,951.81
2017-05-30T04:59:32.476Z,951.81
2017-05-30T05:00:32.475Z,951.79
2017-05-30T05:01:32.476Z,951.82
2017-05-30T05:02:32.478Z,951.79
2017-05-30T05:03:32.477Z,951.8
2017-05-30T05:04:32.494Z,951.8
2017-05-30T05:05:32.482Z,951.75
2017-05-30T05:06:32.477Z,951.74
2017-05-30T05:07:32.477Z,951.78
2017-05-30T05:08:32.476Z,951.77
2017-05-30T05:09:32.480Z,951.76
2017-05-30T05:10:32.480Z,951.79
2017-05-30T05:11:32.479Z,951.81
2017-05-30T05:12:32.479Z,951.83
2017-05-30T05:13:32.479Z,951.81
2017-05-30T05:14:32.480Z,951.82
2017-05-30T05:15:32.502Z,951.88
2017-05-30T05:16:32.481Z,951.86
2017-05-30T05:17:32.495Z,951.82
2017-05-30T05:18:32.481Z,951.87
2017-05-30T05:19:32.484Z,951.89
2017-05-30T05:20:32.483Z,951.89
2017-05-30T05:21:32.485Z,951.91
2017-05-30T05:22:32.484Z,951.92
2017-05-30T05:23:32.492Z,951.93
2017-05-30T05:24:32.497Z,952
2017-05-30T05:25:32.502Z,952.01
2017-05-30T05:26:32.488Z,952.03
2017-05-30T05:27:32.490Z,952
2017-05-30T05:28:32.495Z,952.04
2017-05-30T05:29:32.492Z,952.08
2017-05-30T05:30:32.493Z,952.09
2017-05-30T05:31:32.493Z,952.12
2017-05-30T05:32:32.496Z,952.19
2017-05-30T05:33:32.505Z,952.23
2017-05-30T05:34:32.498Z,952.29
2017-05-30T05:35:32.499Z,952.33
2017-05-30T05:36:32.501Z,952.4
2017-05-30T05:37:32.503Z,952.42
2017-05-30T05:38:32.505Z,952.52
2017-05-30T05:39:32.507Z,952.61
2017-05-30T05:40:32.507Z,952.6
2017-05-30T05:41:32.513Z,952.64
2017-05-30T05:42:32.514Z,952.67
2017-05-30T05:43:32.515Z,952.68
2017-05-30T05:44:32.516Z,952.74
2017-05-30T05:45:32.517Z,952.77
2017-05-30T05:46:32.522Z,952.78
2017-05-30T05:47:32.522Z,952.83
2017-05-30T05:48:32.524Z,952.83
2017-05-30T05:49:32.527Z,952.92
2017-05-30T05:50:32.529Z,952.84
2017-05-30T05:51:32.530Z,952.84
2017-05-30T05:52:32.536Z,952.89
2017-05-30T05:53:32.534Z,952.94
2017-05-30T05:54:32.550Z,952.92
2017-05-30T05:55:32.538Z,953
2017-05-30T05:56:32.539Z,953.03
2017-05-30T05:57:32.564Z,952.96
2017-05-30T05:58:32.545Z,953.02
2017-05-30T05:59:32.574Z,953.04
2017-05-30T06:00:32.570Z,953.02
2017-05-30T06:01:32.552Z,953.04
2017-05-30T06:02:32.554Z,953.03
2017-05-30T06:03:32.553Z,953.03
2017-05-30T06:04:32.556Z,953.09
2017-05-30T06:05:32.559Z,953.06
2017-05-30T06:06:32.559Z,953.1
2017-05-30T06:07:32.562Z,953.08
2017-05-30T06:08:32.565Z,953.08
2017-05-30T06:09:32.566Z,953.12
2017-05-30T06:10:32.568Z,953.16
2017-05-30T06:11:32.570Z,953.13
2017-05-30T06:12:32.572Z,953.24
2017-05-30T06:13:32.574Z,953.21
2017-05-30T06:14:32.575Z,953.23
2017-05-30T06:15:32.578Z,953.28
2017-05-30T06:16:32.581Z,953.33
2017-05-30T06:17:32.581Z,953.35
2017-05-30T06:18:32.582Z,953.34
2017-05-30T06:19:32.594Z,953.36
2017-05-30T06:20:32.617Z,953.37
2017-05-30T06:21:32.589Z,953.38
2017-05-30T06:22:32.589Z,953.41
2017-05-30T06:23:32.592Z,953.43
2017-05-30T06:24:32.592Z,953.43
2017-05-30T06:25:32.595Z,953.46
2017-05-30T06:26:32.647Z,953.46
2017-05-30T06:27:32.595Z,953.47
2017-05-30T06:28:32.614Z,953.52
2017-05-30T06:29:32.598Z,953.57
2017-05-30T06:30:32.599Z,953.54
2017-05-30T06:31:32.599Z,953.61
2017-05-30T06:32:32.600Z,953.56
2017-05-30T06:33:32.600Z,953.53
2017-05-30T06:34:32.601Z,953.55
2017-05-30T06:35:32.614Z,953.58
2017-05-30T06:36:32.601Z,953.58
2017-05-30T06:37:32.602Z,953.61
2017-05-30T06:38:32.603Z,953.69
2017-05-30T06:39:32.603Z,953.69
2017-05-30T06:40:32.603Z,953.72
2017-05-30T06:41:32.615Z,953.71
2017-05-30T06:42:32.602Z,953.72
2017-05-30T06:43:32.602Z,953.69
2017-05-30T06:44:32.603Z,953.7
2017-05-30T06:45:32.606Z,953.7
2017-05-30T06:46:32.604Z,953.71
2017-05-30T06:47:32.605Z,953.64
2017-05-30T06:48:32.624Z,953.64
2017-05-30T06:49:32.605Z,953.57
2017-05-30T06:50:32.603Z,953.54
2017-05-30T06:51:32.604Z,953.55
2017-05-30T06:52:32.605Z,953.46
2017-05-30T06:53:32.605Z,953.49
2017-05-30T06:54:32.606Z,953.5
2017-05-30T06:55:32.606Z,953.4
2017-05-30T06:56:32.607Z,953.47
2017-05-30T06:57:32.605Z,953.48
2017-05-30T06:58:32.608Z,953.4
2017-05-30T06:59:32.611Z,953.35
2017-05-30T07:00:32.611Z,953.31
2017-05-30T07:01:32.611Z,953.3
2017-05-30T07:02:32.613Z,953.35
2017-05-30T07:03:32.615Z,953.33
2017-05-30T07:04:32.615Z,953.3
2017-05-30T07:05:32.618Z,953.23
2017-05-30T07:06:32.620Z,953.27
2017-05-30T07:07:32.621Z,953.23
2017-05-30T07:08:32.622Z,953.27
2017-05-30T07:09:32.627Z,953.26
2017-05-30T07:10:32.628Z,953.22
2017-05-30T07:11:32.629Z,953.24
2017-05-30T07:12:32.633Z,953.27
2017-05-30T07:13:32.634Z,953.27
2017-05-30T07:14:32.637Z,953.32
2017-05-30T07:15:32.660Z,953.32
2017-05-30T07:16:32.641Z,953.39
2017-05-30T07:17:32.643Z,953.39
2017-05-30T07:18:32.646Z,953.39
2017-05-30T07:19:32.647Z,953.39
2017-05-30T07:20:32.649Z,953.37
2017-05-30T07:21:32.653Z,953.37
2017-05-30T07:22:32.656Z,953.31
2017-05-30T07:23:32.655Z,953.29
2017-05-30T07:24:32.659Z,953.29
2017-05-30T07:25:32.682Z,953.28
2017-05-30T07:26:32.682Z,953.25
2017-05-30T07:27:32.664Z,953.22
2017-05-30T07:28:32.664Z,953.22
2017-05-30T07:29:32.667Z,953.16
2017-05-30T07:30:32.669Z,953.1
2017-05-30T07:31:32.668Z,953.08
2017-05-30T07:32:32.672Z,953.06
2017-05-30T07:33:32.670Z,953.08
2017-05-30T07:34:32.673Z,953.1
2017-05-30T07:35:32.673Z,953.08
2017-05-30T07:36:32.677Z,953.11
2017-05-30T07:37:32.677Z,953.11
2017-05-30T07:38:32.678Z,953.08
2017-05-30T07:39:32.680Z,953.08
2017-05-30T07:40:32.682Z,953.07
2017-05-30T07:41:32.683Z,953.1
2017-05-30T07:42:32.682Z,953.1
2017-05-30T07:43:32.687Z,953.07
2017-05-30T07:44:32.683Z,953.07
2017-05-30T07:45:32.687Z,953.07
2017-05-30T07:46:32.688Z,953.07
2017-05-30T07:47:32.688Z,953.11
2017-05-30T07:48:32.689Z,953.1
2017-05-30T07:49:32.690Z,953.09
2017-05-30T07:50:32.692Z,953.16
2017-05-30T07:51:32.692Z,953.15
2017-05-30T07:52:32.694Z,953.17
2017-05-30T07:53:32.695Z,953.2
2017-05-30T07:54:32.697Z,953.15
2017-05-30T07:55:32.697Z,953.14
2017-05-30T07:56:32.697Z,953.22
2017-05-30T07:57:32.699Z,953.3
2017-05-30T07:58:32.701Z,953.25
2017-05-30T07:59:32.703Z,953.31
2017-05-30T08:00:32.701Z,953.32
2017-05-30T08:01:32.704Z,953.28
2017-05-30T08:02:32.704Z,953.29
2017-05-30T08:03:32.704Z,953.27
2017-05-30T08:04:32.706Z,953.25
2017-05-30T08:05:32.708Z,953.24
2017-05-30T08:06:32.710Z,953.2
2017-05-30T08:07:32.709Z,953.23
2017-05-30T08:08:32.715Z,953.23
2017-05-30T08:09:32.712Z,953.26
2017-05-30T08:10:32.711Z,953.24
2017-05-30T08:11:32.714Z,953.24
2017-05-30T08:12:32.715Z,953.27
2017-05-30T08:13:32.716Z,953.27
2017-05-30T08:14:32.735Z,953.26
2017-05-30T08:15:32.717Z,953.25
2017-05-30T08:16:32.718Z,953.24
2017-05-30T08:17:32.720Z,953.22
2017-05-30T08:18:32.720Z,953.21
2017-05-30T08:19:32.723Z,953.2
2017-05-30T08:20:32.723Z,953.19
2017-05-30T08:21:32.731Z,953.26
2017-05-30T08:22:32.726Z,953.22
2017-05-30T08:23:32.728Z,953.25
2017-05-30T08:24:32.727Z,953.27
2017-05-30T08:25:32.728Z,953.28
2017-05-30T08:26:32.729Z,953.27
2017-05-30T08:27:32.731Z,953.3
2017-05-30T08:28:32.734Z,953.3
2017-05-30T08:29:32.736Z,953.31
2017-05-30T08:30:32.733Z,953.34
2017-05-30T08:31:32.736Z,953.35
2017-05-30T08:32:32.738Z,953.37
2017-05-30T08:33:32.737Z,953.39
2017-05-30T08:34:32.738Z,953.4
2017-05-30T08:35:32.741Z,953.4
2017-05-30T08:36:32.745Z,953.36
2017-05-30T08:37:32.746Z,953.39
2017-05-30T08:38:32.748Z,953.34
2017-05-30T08:39:32.750Z,953.39
2017-05-30T08:40:32.749Z,953.43
2017-05-30T08:41:32.753Z,953.48
2017-05-30T08:42:32.754Z,953.46
2017-05-30T08:43:32.758Z,953.46
2017-05-30T08:44:32.758Z,953.49
2017-05-30T08:45:32.762Z,953.5
2017-05-30T08:46:32.763Z,953.51
2017-05-30T08:47:32.765Z,953.47
2017-05-30T08:48:32.770Z,953.47
2017-05-30T08:49:32.770Z,953.48
2017-05-30T08:50:32.772Z,953.46
2017-05-30T08:51:32.775Z,953.49
2017-05-30T08:52:32.779Z,953.46
2017-05-30T08:53:32.784Z,953.46
2017-05-30T08:54:32.784Z,953.46
2017-05-30T08:55:32.786Z,953.51
2017-05-30T08:56:32.789Z,953.47
2017-05-30T08:57:32.792Z,953.44
2017-05-30T08:58:32.795Z,953.46
2017-05-30T08:59:32.800Z,953.46
2017-05-30T09:00:32.817Z,953.48
2017-05-30T09:01:32.804Z,953.48
2017-05-30T09:02:32.808Z,953.45
2017-05-30T09:03:32.820Z,953.45
2017-05-30T09:04:32.816Z,953.5
2017-05-30T09:05:32.820Z,953.54
2017-05-30T09:06:32.825Z,953.56
2017-05-30T09:07:32.828Z,953.58
2017-05-30T09:08:32.832Z,953.61
2017-05-30T09:09:32.835Z,953.58
2017-05-30T09:10:32.866Z,953.64
2017-05-30T09:11:32.848Z,953.63
2017-05-30T09:12:32.870Z,953.65
2017-05-30T09:13:32.851Z,953.69
2017-05-30T09:14:32.856Z,953.77
2017-05-30T09:15:32.860Z,953.88
2017-05-30T09:16:32.883Z,954.08
2017-05-30T09:17:32.868Z,954.25
2017-05-30T09:18:32.873Z,954.35
2017-05-30T09:19:32.878Z,954.35
2017-05-30T09:20:32.880Z,954.33
2017-05-30T09:21:32.885Z,954.38
2017-05-30T09:22:32.889Z,954.34
2017-05-30T09:23:32.892Z,954.33
2017-05-30T09:24:32.896Z,954.36
2017-05-30T09:25:32.901Z,954.38
2017-05-30T09:26:32.908Z,954.38
2017-05-30T09:27:32.912Z,954.45
2017-05-30T09:28:32.909Z,954.37
2017-05-30T09:29:32.914Z,954.39
2017-05-30T09:30:32.917Z,954.28
2017-05-30T09:31:32.922Z,954.18
2017-05-30T09:32:32.925Z,954.11
2017-05-30T09:33:32.924Z,954.13
2017-05-30T09:34:32.929Z,954.11
2017-05-30T09:35:32.933Z,954.16
2017-05-30T09:36:32.935Z,954.16
2017-05-30T09:37:32.940Z,954.09
2017-05-30T09:38:32.942Z,954.14
2017-05-30T09:39:32.943Z,954.04
2017-05-30T09:40:32.948Z,954.07
2017-05-30T09:41:32.949Z,954.07
2017-05-30T09:42:32.956Z,954.09
2017-05-30T09:43:32.959Z,954.1
2017-05-30T09:44:32.961Z,954.13
2017-05-30T09:45:32.965Z,954.09
2017-05-30T09:46:32.967Z,954.1
2017-05-30T09:47:32.973Z,954.05
2017-05-30T09:48:32.975Z,954.06
2017-05-30T09:49:32.979Z,954.05
2017-05-30T09:50:32.983Z,953.99
2017-05-30T09:51:32.989Z,953.95
2017-05-30T09:52:32.991Z,953.9
2017-05-30T09:53:32.998Z,953.92
2017-05-30T09:54:32.999Z,953.91
2017-05-30T09:55:33.004Z,953.89
2017-05-30T09:56:33.020Z,953.86
2017-05-30T09:57:33.013Z,953.82
2017-05-30T09:58:33.029Z,953.77
2017-05-30T09:59:33.023Z,953.72
2017-05-30T10:00:33.028Z,953.71
2017-05-30T10:01:33.031Z,953.69
2017-05-30T10:02:33.059Z,953.67
2017-05-30T10:03:33.040Z,953.63
2017-05-30T10:04:33.044Z,953.58
2017-05-30T10:05:33.050Z,953.58
2017-05-30T10:06:33.055Z,953.56
2017-05-30T10:07:33.059Z,953.59
2017-05-30T10:08:33.065Z,953.57
2017-05-30T10:09:33.069Z,953.51
2017-05-30T10:10:33.074Z,953.47
2017-05-30T10:11:33.080Z,953.5
2017-05-30T10:12:33.084Z,953.47
2017-05-30T10:13:33.091Z,953.4
2017-05-30T10:14:33.096Z,953.39
2017-05-30T10:15:33.101Z,953.35
2017-05-30T10:16:33.106Z,953.31
2017-05-30T10:17:33.112Z,953.3
2017-05-30T10:18:33.122Z,953.27
2017-05-30T10:19:33.122Z,953.3
2017-05-30T10:20:33.129Z,953.3
2017-05-30T10:21:33.133Z,953.21
2017-05-30T10:22:33.140Z,953.17
2017-05-30T10:23:33.145Z,953.12
2017-05-30T10:24:33.151Z,953.14
2017-05-30T10:25:33.155Z,953.1
2017-05-30T10:26:33.163Z,953.07
2017-05-30T10:27:33.169Z,953.12
2017-05-30T10:28:33.176Z,953.09
2017-05-30T10:29:33.181Z,953.06
2017-05-30T10:30:33.186Z,952.99
2017-05-30T10:31:33.193Z,952.98
2017-05-30T10:32:33.198Z,952.97
2017-05-30T10:33:33.206Z,952.97
2017-05-30T10:34:33.212Z,952.93
2017-05-30T10:35:33.219Z,952.96
2017-05-30T10:36:33.223Z,952.98
2017-05-30T10:37:33.230Z,952.96
2017-05-30T10:38:33.237Z,952.93
2017-05-30T10:39:33.244Z,952.89
2017-05-30T10:40:33.250Z,952.94
2017-05-30T10:41:33.256Z,952.89
2017-05-30T10:42:33.883Z,952.85
2017-05-30T10:43:33.270Z,952.86
2017-05-30T10:44:33.277Z,952.86
2017-05-30T10:45:33.282Z,952.83
2017-05-30T10:46:33.290Z,952.89
2017-05-30T10:47:33.295Z,952.85
2017-05-30T10:48:33.305Z,952.83
2017-05-30T10:49:33.308Z,952.85
2017-05-30T10:50:33.315Z,952.82
2017-05-30T10:51:33.321Z,952.79
2017-05-30T10:52:33.329Z,952.8
2017-05-30T10:53:33.336Z,952.81
2017-05-30T10:54:33.339Z,952.77
2017-05-30T10:55:33.347Z,952.77
2017-05-30T10:56:33.354Z,952.74
2017-05-30T10:57:33.361Z,952.74
2017-05-30T10:58:33.366Z,952.74
2017-05-30T10:59:33.373Z,952.73
2017-05-30T11:00:33.381Z,952.78
2017-05-30T11:01:33.388Z,952.77
2017-05-30T11:02:33.411Z,952.77
2017-05-30T11:03:33.401Z,952.78
2017-05-30T11:04:33.456Z,952.79
2017-05-30T11:05:33.413Z,952.79
2017-05-30T11:06:33.419Z,952.82
2017-05-30T11:07:33.427Z,952.83
2017-05-30T11:08:33.434Z,952.86
2017-05-30T11:09:33.440Z,952.81
2017-05-30T11:10:33.448Z,952.85
2017-05-30T11:11:33.454Z,952.86
2017-05-30T11:12:33.461Z,952.86
2017-05-30T11:13:33.466Z,952.95
2017-05-30T11:14:33.473Z,952.88
2017-05-30T11:15:33.479Z,952.9
2017-05-30T11:16:33.486Z,952.93
2017-05-30T11:17:33.493Z,952.97
2017-05-30T11:18:33.501Z,952.98
2017-05-30T11:19:33.528Z,952.98
2017-05-30T11:20:33.532Z,952.9
2017-05-30T11:21:33.518Z,952.89
2017-05-30T11:22:33.524Z,952.93
2017-05-30T11:23:33.530Z,952.99
2017-05-30T11:24:33.536Z,952.86
2017-05-30T11:25:33.542Z,953.03
2017-05-30T11:26:33.550Z,953
2017-05-30T11:27:33.553Z,953.03
2017-05-30T11:28:33.560Z,953.04
2017-05-30T11:29:33.567Z,952.98
2017-05-30T11:30:33.572Z,953.01
2017-05-30T11:31:33.578Z,953.01
2017-05-30T11:32:33.584Z,953.03
2017-05-30T11:33:33.590Z,952.98
2017-05-30T11:34:33.597Z,953.02
2017-05-30T11:35:33.600Z,952.99
2017-05-30T11:36:33.607Z,953.02
2017-05-30T11:37:33.613Z,953
2017-05-30T11:38:33.621Z,953.05
2017-05-30T11:39:33.632Z,953.04
2017-05-30T11:40:33.629Z,952.97
2017-05-30T11:41:33.633Z,953.07
2017-05-30T11:42:33.638Z,953.03
2017-05-30T11:43:33.643Z,953.06
2017-05-30T11:44:33.649Z,953.02
2017-05-30T11:45:33.663Z,953.03
2017-05-30T11:46:33.661Z,953
2017-05-30T11:47:33.666Z,952.96
2017-05-30T11:48:33.670Z,952.97
2017-05-30T11:49:33.675Z,952.92
2017-05-30T11:50:33.681Z,952.98
2017-05-30T11:51:33.686Z,952.89
2017-05-30T11:52:33.692Z,952.9
2017-05-30T11:53:33.695Z,952.91
2017-05-30T11:54:33.700Z,952.83
2017-05-30T11:55:33.707Z,952.84
2017-05-30T11:56:33.711Z,952.84
2017-05-30T11:57:33.716Z,952.79
2017-05-30T11:58:33.721Z,952.78
2017-05-30T11:59:33.726Z,952.75
2017-05-30T12:00:33.730Z,952.7
2017-05-30T12:01:33.740Z,952.67
2017-05-30T12:02:33.741Z,952.66
2017-05-30T12:03:33.745Z,952.72
2017-05-30T12:04:33.749Z,952.69
2017-05-30T12:05:33.758Z,952.7
2017-05-30T12:06:33.761Z,952.66
2017-05-30T12:07:33.766Z,952.61
2017-05-30T12:08:33.771Z,952.63
2017-05-30T12:09:33.778Z,952.7
2017-05-30T12:10:33.781Z,952.65
2017-05-30T12:11:33.786Z,952.62
2017-05-30T12:12:33.791Z,952.64
2017-05-30T12:13:33.796Z,952.71
2017-05-30T12:14:33.817Z,952.59
2017-05-30T12:15:33.806Z,952.59
2017-05-30T12:16:33.810Z,952.54
2017-05-30T12:17:33.816Z,952.57
2017-05-30T12:18:33.821Z,952.63
2017-05-30T12:19:33.825Z,952.58
2017-05-30T12:20:33.831Z,952.58
2017-05-30T12:21:33.835Z,952.58
2017-05-30T12:22:33.841Z,952.64
2017-05-30T12:23:33.847Z,952.57
2017-05-30T12:24:33.850Z,952.56
2017-05-30T12:25:33.855Z,952.6
2017-05-30T12:26:33.861Z,952.65
2017-05-30T12:27:33.866Z,952.61
2017-05-30T12:28:33.872Z,952.63
2017-05-30T12:29:33.877Z,952.66
2017-05-30T12:30:33.883Z,952.59
2017-05-30T12:31:33.888Z,952.59